^^
Saratoga-Weather Station Historical Data
Daily Summary for January 25, 2020 Units:  Metric    English   Both
Daily Weekly Monthly Yearly Custom
  High: Low: Average:
Temperature: 27.3 °C 14.2 °C 20.6 °C
Dew Point: 16.1 °C 12.9 °C 14.4 °C
Humidity: 92% 44% 70%
Wind Speed: 13km/h 0km/h 2.1km/h
Wind Gust: 19.3km/h - -
Wind- - SW
Pressure: 1013.5 hPa 1008.8 hPa -
Precipitation: 0.0 mm    
Historical Graphs
 
 
Tabular Data for January 25, 2020
Time Temperature Dew Point Pressure Wind Wind Speed Wind Gust Humidity Rainfall Rate (Hourly) solar
00:01 17.6 °C 14.3 °C 1012.9 hPa Calm     81% 0.0 mm 0 W/m2
00:06 17.5 °C 14.2 °C 1012.9 hPa Calm     81% 0.0 mm 0 W/m2
00:11 17.4 °C 14.1 °C 1013.2 hPa Calm     81% 0.0 mm 0 W/m2
00:16 17.4 °C 14.1 °C 1013.2 hPa Calm     81% 0.0 mm 0 W/m2
00:21 17.3 °C 14.2 °C 1013.2 hPa Calm     82% 0.0 mm 0 W/m2
00:26 17.3 °C 14.2 °C 1013.2 hPa Calm     82% 0.0 mm 0 W/m2
00:31 17.3 °C 14.2 °C 1013.2 hPa Calm     82% 0.0 mm 0 W/m2
00:36 17.3 °C 14.2 °C 1013.2 hPa WNW 1.4 km/h 3.2 km/h 82% 0.0 mm 0 W/m2
00:41 17.4 °C 14.3 °C 1013.2 hPa WNW 1.4 km/h 1.6 km/h 82% 0.0 mm 0 W/m2
00:46 17.4 °C 14.3 °C 1013.2 hPa West 3.2 km/h 3.2 km/h 82% 0.0 mm 0 W/m2
00:51 17.4 °C 14.1 °C 1013.2 hPa West 1.4 km/h 4.8 km/h 81% 0.0 mm 0 W/m2
00:56 17.5 °C 14.2 °C 1013.2 hPa NW 1.4 km/h 3.2 km/h 81% 0.0 mm 0 W/m2
01:01 17.6 °C 14.3 °C 1013.2 hPa NW 4.7 km/h 4.8 km/h 81% 0.0 mm 0 W/m2
01:06 17.7 °C 14.4 °C 1013.2 hPa NW 1.4 km/h 3.2 km/h 81% 0.0 mm 0 W/m2
01:11 17.7 °C 14.2 °C 1013.2 hPa West 1.4 km/h 3.2 km/h 80% 0.0 mm 0 W/m2
01:16 17.7 °C 14.2 °C 1013.2 hPa West 1.4 km/h 3.2 km/h 80% 0.0 mm 0 W/m2
01:21 17.7 °C 14.2 °C 1013.2 hPa West 1.4 km/h 1.6 km/h 80% 0.0 mm 0 W/m2
01:26 17.6 °C 14.1 °C 1012.9 hPa Calm   3.2 km/h 80% 0.0 mm 0 W/m2
01:31 17.5 °C 14.2 °C 1012.9 hPa West 3.2 km/h 4.8 km/h 81% 0.0 mm 0 W/m2
01:36 17.4 °C 14.1 °C 1012.9 hPa West 1.4 km/h 4.8 km/h 81% 0.0 mm 0 W/m2
01:41 17.4 °C 14.3 °C 1012.9 hPa West 3.2 km/h 6.4 km/h 82% 0.0 mm 0 W/m2
01:46 17.4 °C 14.3 °C 1012.9 hPa West 1.4 km/h 3.2 km/h 82% 0.0 mm 0 W/m2
01:51 17.4 °C 14.3 °C 1013.2 hPa West 1.4 km/h 6.4 km/h 82% 0.0 mm 0 W/m2
01:56 17.4 °C 14.1 °C 1013.2 hPa Calm   1.6 km/h 81% 0.0 mm 0 W/m2
02:01 17.4 °C 14.1 °C 1013.2 hPa Calm     81% 0.0 mm 0 W/m2
02:06 17.3 °C 14 °C 1013.2 hPa Calm     81% 0.0 mm 0 W/m2
02:11 17.2 °C 13.9 °C 1013.2 hPa Calm     81% 0.0 mm 0 W/m2
02:16 17.2 °C 14.1 °C 1013.2 hPa Calm     82% 0.0 mm 0 W/m2
02:21 17 °C 13.9 °C 1013.2 hPa Calm     82% 0.0 mm 0 W/m2
02:26 16.8 °C 13.7 °C 1012.9 hPa Calm     82% 0.0 mm 0 W/m2
02:31 16.7 °C 13.8 °C 1012.9 hPa Calm     83% 0.0 mm 0 W/m2
02:36 16.6 °C 13.7 °C 1012.9 hPa Calm     83% 0.0 mm 0 W/m2
02:41 16.4 °C 13.7 °C 1012.9 hPa Calm     84% 0.0 mm 0 W/m2
02:46 16.2 °C 13.5 °C 1012.9 hPa Calm     84% 0.0 mm 0 W/m2
02:51 16.1 °C 13.6 °C 1012.9 hPa Calm     85% 0.0 mm 0 W/m2
02:56 15.9 °C 13.4 °C 1012.9 hPa Calm     85% 0.0 mm 0 W/m2
03:01 15.8 °C 13.5 °C 1012.9 hPa Calm     86% 0.0 mm 0 W/m2
03:06 15.7 °C 13.4 °C 1012.9 hPa Calm     86% 0.0 mm 0 W/m2
03:11 15.6 °C 13.4 °C 1012.9 hPa Calm     87% 0.0 mm 0 W/m2
03:16 15.4 °C 13.2 °C 1012.9 hPa Calm     87% 0.0 mm 0 W/m2
03:21 15.4 °C 13.2 °C 1012.9 hPa Calm     87% 0.0 mm 0 W/m2
03:26 15.3 °C 13.3 °C 1012.9 hPa Calm     88% 0.0 mm 0 W/m2
03:31 15.2 °C 13.2 °C 1013.2 hPa Calm     88% 0.0 mm 0 W/m2
03:36 15.1 °C 13.1 °C 1013.2 hPa Calm     88% 0.0 mm 0 W/m2
03:41 15 °C 13.2 °C 1013.2 hPa Calm     89% 0.0 mm 0 W/m2
03:46 14.9 °C 13.1 °C 1013.2 hPa Calm   1.6 km/h 89% 0.0 mm 0 W/m2
03:51 14.9 °C 13.1 °C 1013.2 hPa Calm     89% 0.0 mm 0 W/m2
03:56 14.8 °C 13 °C 1013.2 hPa Calm     89% 0.0 mm 0 W/m2
04:06 14.7 °C 13.1 °C 1013.2 hPa Calm     90% 0.0 mm 0 W/m2
04:11 14.6 °C 13 °C 1013.2 hPa Calm     90% 0.0 mm 0 W/m2
04:16 14.5 °C 12.9 °C 1013.2 hPa Calm     90% 0.0 mm 0 W/m2
04:21 14.4 °C 12.9 °C 1013.2 hPa Calm     91% 0.0 mm 0 W/m2
04:26 14.4 °C 12.9 °C 1013.2 hPa Calm     91% 0.0 mm 0 W/m2
04:31 14.3 °C 12.9 °C 1013.2 hPa Calm     91% 0.0 mm 0 W/m2
04:36 14.3 °C 12.9 °C 1013.2 hPa WNW 3.2 km/h 3.2 km/h 91% 0.0 mm 0 W/m2
04:41 14.3 °C 12.9 °C 1013.2 hPa Calm     91% 0.0 mm 0 W/m2
04:46 14.3 °C 13 °C 1013.2 hPa Calm     92% 0.0 mm 0 W/m2
04:51 14.2 °C 12.9 °C 1013.2 hPa Calm     92% 0.0 mm 0 W/m2
04:56 14.2 °C 12.9 °C 1013.2 hPa Calm     92% 0.0 mm 0 W/m2
05:01 14.2 °C 12.9 °C 1013.2 hPa Calm     92% 0.0 mm 0 W/m2
05:06 14.3 °C 13 °C 1013.2 hPa Calm     92% 0.0 mm 0 W/m2
05:11 14.3 °C 13 °C 1013.2 hPa Calm     92% 0.0 mm 0 W/m2
05:16 14.3 °C 13 °C 1013.2 hPa Calm   3.2 km/h 92% 0.0 mm 0 W/m2
05:21 14.4 °C 13.1 °C 1013.2 hPa Calm     92% 0.0 mm 0 W/m2
05:26 14.4 °C 13.1 °C 1013.2 hPa Calm   3.2 km/h 92% 0.0 mm 0 W/m2
05:31 14.4 °C 12.9 °C 1013.2 hPa Calm     91% 0.0 mm 0 W/m2
05:36 14.5 °C 13.2 °C 1013.2 hPa Calm     92% 0.0 mm 0 W/m2
05:41 14.5 °C 13 °C 1013.2 hPa Calm     91% 0.0 mm 0 W/m2
05:46 14.6 °C 13.1 °C 1012.9 hPa Calm     91% 0.0 mm 0 W/m2
05:51 14.6 °C 13.3 °C 1013.2 hPa Calm     92% 0.0 mm 0 W/m2
05:56 14.7 °C 13.2 °C 1013.2 hPa Calm     91% 0.0 mm 0 W/m2
06:01 14.8 °C 13.5 °C 1013.2 hPa Calm     92% 0.0 mm 0 W/m2
06:06 14.9 °C 13.4 °C 1013.2 hPa Calm     91% 0.0 mm 5 W/m2
06:11 15 °C 13.5 °C 1012.9 hPa Calm   1.6 km/h 91% 0.0 mm 9 W/m2
06:16 15.2 °C 13.6 °C 1012.9 hPa Calm     90% 0.0 mm 11 W/m2
06:21 15.2 °C 13.6 °C 1012.9 hPa Calm     90% 0.0 mm 12 W/m2
06:26 15.3 °C 13.7 °C 1012.9 hPa Calm     90% 0.0 mm 14 W/m2
06:31 15.3 °C 13.7 °C 1012.9 hPa Calm     90% 0.0 mm 16 W/m2
06:36 15.4 °C 13.8 °C 1012.9 hPa Calm     90% 0.0 mm 18 W/m2
06:41 15.5 °C 13.7 °C 1012.9 hPa Calm     89% 0.0 mm 19 W/m2
06:46 15.6 °C 13.8 °C 1012.9 hPa Calm     89% 0.0 mm 25 W/m2
06:51 15.7 °C 13.9 °C 1012.9 hPa Calm   1.6 km/h 89% 0.0 mm 30 W/m2
06:56 15.8 °C 13.8 °C 1013.2 hPa Calm   1.6 km/h 88% 0.0 mm 32 W/m2
07:01 15.9 °C 13.7 °C 1013.2 hPa Calm   1.6 km/h 87% 0.0 mm 33 W/m2
07:06 16.1 °C 13.9 °C 1013.2 hPa WNW 1.4 km/h 3.2 km/h 87% 0.0 mm 32 W/m2
07:11 16.1 °C 13.8 °C 1013.2 hPa Calm   1.6 km/h 86% 0.0 mm 32 W/m2
07:16 16.2 °C 13.9 °C 1013.2 hPa Calm     86% 0.0 mm 35 W/m2
07:21 16.2 °C 13.9 °C 1013.5 hPa Calm     86% 0.0 mm 39 W/m2
07:26 16.3 °C 14 °C 1013.5 hPa Calm     86% 0.0 mm 39 W/m2
07:31 16.3 °C 14 °C 1013.5 hPa Calm   1.6 km/h 86% 0.0 mm 47 W/m2
07:36 16.4 °C 14.1 °C 1013.5 hPa Calm     86% 0.0 mm 47 W/m2
07:41 16.4 °C 14.1 °C 1013.5 hPa Calm     86% 0.0 mm 39 W/m2
07:46 16.6 °C 14.2 °C 1013.5 hPa NNW 3.2 km/h 3.2 km/h 86% 0.0 mm 35 W/m2
07:51 16.6 °C 14.1 °C 1013.5 hPa Calm     85% 0.0 mm 49 W/m2
07:56 16.7 °C 14.2 °C 1013.5 hPa Calm     85% 0.0 mm 54 W/m2
08:01 16.8 °C 14.3 °C 1013.5 hPa Calm     85% 0.0 mm 51 W/m2
08:06 16.9 °C 14.4 °C 1013.5 hPa Calm     85% 0.0 mm 67 W/m2
08:11 17 °C 14.5 °C 1013.5 hPa Calm     85% 0.0 mm 74 W/m2
08:16 17.2 °C 14.5 °C 1013.5 hPa Calm   1.6 km/h 84% 0.0 mm 77 W/m2
08:21 17.3 °C 14.6 °C 1013.5 hPa Calm     84% 0.0 mm 70 W/m2
08:26 17.4 °C 14.5 °C 1013.5 hPa Calm     83% 0.0 mm 76 W/m2
08:31 17.6 °C 14.7 °C 1013.5 hPa NNW 1.4 km/h 1.6 km/h 83% 0.0 mm 105 W/m2
08:37 17.7 °C 14.6 °C 1013.5 hPa Calm   1.6 km/h 82% 0.0 mm 109 W/m2
08:42 17.8 °C 14.7 °C 1013.5 hPa Calm     82% 0.0 mm 109 W/m2
08:47 18 °C 14.7 °C 1013.5 hPa Calm     81% 0.0 mm 130 W/m2
08:52 18.2 °C 14.9 °C 1013.5 hPa Calm   3.2 km/h 81% 0.0 mm 120 W/m2
08:57 18.3 °C 14.8 °C 1013.5 hPa North 1.4 km/h 3.2 km/h 80% 0.0 mm 120 W/m2
09:02 18.4 °C 14.9 °C 1013.5 hPa Calm     80% 0.0 mm 144 W/m2
09:07 18.6 °C 15.1 °C 1013.5 hPa North 3.2 km/h 3.2 km/h 80% 0.0 mm 176 W/m2
09:12 18.8 °C 15.1 °C 1013.2 hPa Calm   1.6 km/h 79% 0.0 mm 178 W/m2
09:17 19.1 °C 15.4 °C 1013.2 hPa ENE 3.2 km/h 4.8 km/h 79% 0.0 mm 199 W/m2
09:23 19.2 °C 15.5 °C 1013.2 hPa East 3.2 km/h 6.4 km/h 79% 0.0 mm 257 W/m2
09:28 19.4 °C 15.5 °C 1013.5 hPa East 3.2 km/h 4.8 km/h 78% 0.0 mm 253 W/m2
09:33 19.6 °C 15.5 °C 1013.5 hPa NE 4.7 km/h 4.8 km/h 77% 0.0 mm 246 W/m2
09:38 19.6 °C 15.5 °C 1013.5 hPa ENE 1.4 km/h 3.2 km/h 77% 0.0 mm 234 W/m2
09:43 19.7 °C 15.6 °C 1013.2 hPa East 3.2 km/h 4.8 km/h 77% 0.0 mm 225 W/m2
09:48 19.8 °C 15.7 °C 1013.5 hPa ESE 1.4 km/h 3.2 km/h 77% 0.0 mm 229 W/m2
09:53 19.9 °C 15.5 °C 1013.5 hPa East 1.4 km/h 3.2 km/h 76% 0.0 mm 236 W/m2
09:58 20.2 °C 15.6 °C 1013.5 hPa ENE 3.2 km/h 4.8 km/h 75% 0.0 mm 237 W/m2
10:03 20.3 °C 15.7 °C 1013.5 hPa Calm   3.2 km/h 75% 0.0 mm 248 W/m2
10:08 20.4 °C 15.6 °C 1013.5 hPa ESE 1.4 km/h 4.8 km/h 74% 0.0 mm 241 W/m2
10:13 20.6 °C 15.8 °C 1013.5 hPa ESE 3.2 km/h 4.8 km/h 74% 0.0 mm 292 W/m2
10:18 20.8 °C 15.8 °C 1013.2 hPa East 1.4 km/h 3.2 km/h 73% 0.0 mm 313 W/m2
10:23 21.1 °C 16.1 °C 1013.5 hPa East 1.4 km/h 4.8 km/h 73% 0.0 mm 302 W/m2
10:28 21.3 °C 15.8 °C 1013.5 hPa NE 4.7 km/h 4.8 km/h 71% 0.0 mm 322 W/m2
10:33 21.4 °C 15.9 °C 1013.2 hPa SE 1.4 km/h 1.6 km/h 71% 0.0 mm 309 W/m2
10:38 21.6 °C 15.9 °C 1013.2 hPa ENE 1.4 km/h 9.7 km/h 70% 0.0 mm 309 W/m2
10:43 21.8 °C 15.6 °C 1013.2 hPa NNE 3.2 km/h 4.8 km/h 68% 0.0 mm 352 W/m2
10:48 22 °C 15.6 °C 1013.2 hPa West 3.2 km/h 4.8 km/h 67% 0.0 mm 374 W/m2
10:53 22.2 °C 15.5 °C 1013.2 hPa NW 1.4 km/h 1.6 km/h 66% 0.0 mm 387 W/m2
10:58 22.4 °C 15.7 °C 1012.9 hPa East 1.4 km/h 3.2 km/h 66% 0.0 mm 497 W/m2
11:03 22.9 °C 15.7 °C 1012.9 hPa SE 6.4 km/h 11.3 km/h 64% 0.0 mm 654 W/m2
11:08 23.1 °C 15.9 °C 1012.9 hPa WSW 3.2 km/h 3.2 km/h 64% 0.0 mm 425 W/m2
11:13 23.3 °C 15.9 °C 1012.9 hPa WNW 4.7 km/h 11.3 km/h 63% 0.0 mm 464 W/m2
11:18 23.2 °C 15.8 °C 1012.9 hPa West 3.2 km/h 11.3 km/h 63% 0.0 mm 568 W/m2
11:23 23.3 °C 16.1 °C 1012.9 hPa Calm   4.8 km/h 64% 0.0 mm 687 W/m2
11:28 23.6 °C 15.6 °C 1012.9 hPa NE 4.7 km/h 4.8 km/h 61% 0.0 mm 596 W/m2
11:33 23.7 °C 16 °C 1012.9 hPa WNW 6.4 km/h 6.4 km/h 62% 0.0 mm 624 W/m2
11:38 23.5 °C 15.5 °C 1012.9 hPa NNW 1.4 km/h 3.2 km/h 61% 0.0 mm 452 W/m2
11:43 23.6 °C 15.6 °C 1012.9 hPa NNW 4.7 km/h 6.4 km/h 61% 0.0 mm 408 W/m2
11:48 23.5 °C 15.5 °C 1012.9 hPa East 6.4 km/h 6.4 km/h 61% 0.0 mm 380 W/m2
11:53 23.5 °C 15.3 °C 1012.9 hPa NW 3.2 km/h 3.2 km/h 60% 0.0 mm 408 W/m2
11:58 23.7 °C 15.2 °C 1012.9 hPa Calm   3.2 km/h 59% 0.0 mm 278 W/m2
12:03 23.7 °C 15.5 °C 1012.9 hPa Calm   3.2 km/h 60% 0.0 mm 258 W/m2
12:08 23.8 °C 15.6 °C 1012.9 hPa WSW 1.4 km/h 4.8 km/h 60% 0.0 mm 418 W/m2
12:13 24.2 °C 15.4 °C 1012.9 hPa West 9.7 km/h 11.3 km/h 58% 0.0 mm 1081 W/m2
12:18 24.2 °C 15.4 °C 1012.9 hPa ESE 3.2 km/h 11.3 km/h 58% 0.0 mm 334 W/m2
12:23 24.2 °C 15.1 °C 1012.9 hPa NE 1.4 km/h 3.2 km/h 57% 0.0 mm 206 W/m2
12:28 24.1 °C 15 °C 1012.9 hPa East 4.7 km/h 11.3 km/h 57% 0.0 mm 179 W/m2
12:33 24.1 °C 15 °C 1012.9 hPa WNW 1.4 km/h 3.2 km/h 57% 0.0 mm 188 W/m2
12:38 23.9 °C 15.1 °C 1012.9 hPa Calm   1.6 km/h 58% 0.0 mm 174 W/m2
12:43 23.9 °C 14.9 °C 1012.9 hPa West 1.4 km/h 11.3 km/h 57% 0.0 mm 209 W/m2
12:48 23.9 °C 14.9 °C 1012.9 hPa ENE 3.2 km/h 4.8 km/h 57% 0.0 mm 288 W/m2
12:53 23.9 °C 15.1 °C 1012.5 hPa West 1.4 km/h 3.2 km/h 58% 0.0 mm 425 W/m2
12:58 24.2 °C 14.9 °C 1012.5 hPa WNW 7.9 km/h 12.9 km/h 56% 0.0 mm 613 W/m2
13:03 24.4 °C 15.3 °C 1012.5 hPa SW 3.2 km/h 3.2 km/h 57% 0.0 mm 677 W/m2
13:08 24.4 °C 15.1 °C 1012.5 hPa West 3.2 km/h 16.1 km/h 56% 0.0 mm 272 W/m2
13:13 24.3 °C 15 °C 1012.5 hPa WNW 3.2 km/h 8 km/h 56% 0.0 mm 313 W/m2
13:18 24.3 °C 15.2 °C 1012.5 hPa WSW 3.2 km/h 16.1 km/h 57% 0.0 mm 427 W/m2
13:23 24.6 °C 15.5 °C 1012.2 hPa NW 6.4 km/h 6.4 km/h 57% 0.0 mm 979 W/m2
13:28 24.9 °C 15 °C 1012.2 hPa NW 9.7 km/h 14.5 km/h 54% 0.0 mm 715 W/m2
13:33 24.9 °C 15 °C 1012.2 hPa ESE 1.4 km/h 11.3 km/h 54% 0.0 mm 362 W/m2
13:38 25.3 °C 15.3 °C 1012.2 hPa Calm   3.2 km/h 54% 0.0 mm 942 W/m2
13:43 25.6 °C 15 °C 1011.9 hPa NE 1.4 km/h 12.9 km/h 52% 0.0 mm 255 W/m2
13:48 25.6 °C 15 °C 1011.9 hPa WNW 3.2 km/h 14.5 km/h 52% 0.0 mm 258 W/m2
13:53 25.5 °C 14.9 °C 1011.9 hPa West 1.4 km/h 4.8 km/h 52% 0.0 mm 283 W/m2
13:58 25.4 °C 14.5 °C 1011.9 hPa East 3.2 km/h 14.5 km/h 51% 0.0 mm 243 W/m2
14:03 25.4 °C 14.5 °C 1011.9 hPa WNW 3.2 km/h 6.4 km/h 51% 0.0 mm 258 W/m2
14:08 25.4 °C 14.5 °C 1011.9 hPa WSW 4.7 km/h 14.5 km/h 51% 0.0 mm 255 W/m2
14:13 25.3 °C 14.4 °C 1011.9 hPa SSW 4.7 km/h 4.8 km/h 51% 0.0 mm 225 W/m2
14:18 25.3 °C 14.4 °C 1011.5 hPa NNW 13 km/h 12.9 km/h 51% 0.0 mm 227 W/m2
14:23 25.3 °C 14.4 °C 1011.5 hPa WNW 1.4 km/h 1.6 km/h 51% 0.0 mm 288 W/m2
14:28 25.4 °C 14.2 °C 1011.5 hPa West 6.4 km/h 9.7 km/h 50% 0.0 mm 380 W/m2
14:33 25.5 °C 14.3 °C 1011.5 hPa SSE 1.4 km/h 6.4 km/h 50% 0.0 mm 464 W/m2
14:38 26 °C 14.8 °C 1011.5 hPa WNW 4.7 km/h 4.8 km/h 50% 0.0 mm 564 W/m2
14:43 26.6 °C 14.7 °C 1011.5 hPa SW 7.9 km/h 9.7 km/h 48% 0.0 mm 633 W/m2
14:48 27 °C 14.4 °C 1011.2 hPa West 11.1 km/h 16.1 km/h 46% 0.0 mm 696 W/m2
14:53 26.9 °C 14.3 °C 1011.2 hPa NW 4.7 km/h 11.3 km/h 46% 0.0 mm 603 W/m2
14:58 26.9 °C 14.3 °C 1011.2 hPa West 11.1 km/h 16.1 km/h 46% 0.0 mm 461 W/m2
15:03 26.9 °C 13.6 °C 1011.2 hPa WSW 9.7 km/h 11.3 km/h 44% 0.0 mm 466 W/m2
15:09 26.9 °C 14 °C 1011.2 hPa WNW 3.2 km/h 8 km/h 45% 0.0 mm 429 W/m2
15:14 26.7 °C 13.8 °C 1011.2 hPa WSW 3.2 km/h 12.9 km/h 45% 0.0 mm 541 W/m2
15:19 26.7 °C 13.8 °C 1010.8 hPa SSE 1.4 km/h 1.6 km/h 45% 0.0 mm 454 W/m2
15:24 26.8 °C 13.9 °C 1011.2 hPa WNW 6.4 km/h 16.1 km/h 45% 0.0 mm 438 W/m2
15:29 26.7 °C 14.1 °C 1010.8 hPa NNW 7.9 km/h 14.5 km/h 46% 0.0 mm 466 W/m2
15:34 26.6 °C 14.4 °C 1010.8 hPa WNW 3.2 km/h 17.7 km/h 47% 0.0 mm 443 W/m2
15:39 26.7 °C 14.8 °C 1010.8 hPa North 3.2 km/h 4.8 km/h 48% 0.0 mm 454 W/m2
15:44 26.9 °C 14.3 °C 1010.8 hPa WNW 7.9 km/h 14.5 km/h 46% 0.0 mm 478 W/m2
15:49 26.8 °C 14.5 °C 1010.8 hPa NW 7.9 km/h 9.7 km/h 47% 0.0 mm 452 W/m2
15:54 26.8 °C 14.2 °C 1010.8 hPa NW 7.9 km/h 14.5 km/h 46% 0.0 mm 445 W/m2
15:59 26.8 °C 14.5 °C 1010.8 hPa NW 9.7 km/h 19.3 km/h 47% 0.0 mm 455 W/m2
16:04 26.8 °C 14.2 °C 1010.8 hPa West 6.4 km/h 9.7 km/h 46% 0.0 mm 392 W/m2
16:09 26.7 °C 14.5 °C 1010.8 hPa West 3.2 km/h 9.7 km/h 47% 0.0 mm 381 W/m2
16:14 26.7 °C 14.1 °C 1010.8 hPa Calm   11.3 km/h 46% 0.0 mm 392 W/m2
16:19 26.8 °C 14.5 °C 1010.5 hPa WNW 4.7 km/h 6.4 km/h 47% 0.0 mm 404 W/m2
16:25 26.9 °C 14.6 °C 1010.8 hPa WNW 1.4 km/h 3.2 km/h 47% 0.0 mm 408 W/m2
16:30 27.1 °C 14.1 °C 1010.5 hPa WNW 6.4 km/h 6.4 km/h 45% 0.0 mm 330 W/m2
16:40 26.8 °C 14.5 °C 1010.5 hPa East 3.2 km/h 4.8 km/h 47% 0.0 mm 278 W/m2
16:45 26.7 °C 14.8 °C 1010.5 hPa WNW 4.7 km/h 4.8 km/h 48% 0.0 mm 269 W/m2
16:50 26.7 °C 14.5 °C 1010.2 hPa SW 4.7 km/h 8 km/h 47% 0.0 mm 248 W/m2
16:55 26.7 °C 14.8 °C 1010.2 hPa WSW 3.2 km/h 3.2 km/h 48% 0.0 mm 223 W/m2
17:00 26.7 °C 14.1 °C 1010.2 hPa WNW 3.2 km/h 12.9 km/h 46% 0.0 mm 195 W/m2
17:05 26.6 °C 14.4 °C 1010.2 hPa NW 1.4 km/h 6.4 km/h 47% 0.0 mm 192 W/m2
17:10 26.5 °C 14.3 °C 1010.2 hPa NW 1.4 km/h 3.2 km/h 47% 0.0 mm 183 W/m2
17:15 26.5 °C 13.9 °C 1010.2 hPa West 6.4 km/h 9.7 km/h 46% 0.0 mm 148 W/m2
17:20 26.4 °C 14.2 °C 1010.2 hPa East 1.4 km/h 1.6 km/h 47% 0.0 mm 128 W/m2
17:26 26.4 °C 14.2 °C 1010.2 hPa NW 4.7 km/h 6.4 km/h 47% 0.0 mm 134 W/m2
17:31 26.4 °C 14.2 °C 1009.8 hPa WNW 1.4 km/h 3.2 km/h 47% 0.0 mm 142 W/m2
17:36 26.4 °C 14.2 °C 1009.8 hPa Calm   1.6 km/h 47% 0.0 mm 160 W/m2
17:41 26.4 °C 14.2 °C 1009.8 hPa West 12.9 km/h 12.9 km/h 47% 0.0 mm 162 W/m2
17:46 26.3 °C 14.4 °C 1009.8 hPa West 3.2 km/h 9.7 km/h 48% 0.0 mm 160 W/m2
17:51 26.2 °C 14.3 °C 1009.8 hPa Calm   6.4 km/h 48% 0.0 mm 185 W/m2
17:56 26.3 °C 14.4 °C 1009.5 hPa WNW 4.7 km/h 6.4 km/h 48% 0.0 mm 209 W/m2
18:01 26.4 °C 14.5 °C 1009.5 hPa East 4.7 km/h 4.8 km/h 48% 0.0 mm 185 W/m2
18:06 26.4 °C 14.5 °C 1009.5 hPa NNE 1.4 km/h 3.2 km/h 48% 0.0 mm 160 W/m2
18:11 26.3 °C 14.4 °C 1009.5 hPa West 4.7 km/h 6.4 km/h 48% 0.0 mm 160 W/m2
18:16 26.3 °C 14.4 °C 1009.1 hPa West 3.2 km/h 3.2 km/h 48% 0.0 mm 171 W/m2
18:21 26.3 °C 14.7 °C 1009.1 hPa Calm   1.6 km/h 49% 0.0 mm 220 W/m2
18:26 26.4 °C 14.5 °C 1009.1 hPa WNW 3.2 km/h 4.8 km/h 48% 0.0 mm 221 W/m2
18:31 26.5 °C 14.6 °C 1009.1 hPa Calm   1.6 km/h 48% 0.0 mm 207 W/m2
18:36 26.6 °C 14.4 °C 1009.1 hPa NNW 1.4 km/h 6.4 km/h 47% 0.0 mm 218 W/m2
18:41 26.6 °C 14.7 °C 1009.1 hPa West 1.4 km/h 9.7 km/h 48% 0.0 mm 353 W/m2
18:46 26.8 °C 14.5 °C 1009.1 hPa NNW 1.4 km/h 3.2 km/h 47% 0.0 mm 306 W/m2
18:51 26.8 °C 14.9 °C 1009.1 hPa SW 3.2 km/h 4.8 km/h 48% 0.0 mm 278 W/m2
18:56 26.8 °C 14.2 °C 1008.8 hPa WNW 1.4 km/h 6.4 km/h 46% 0.0 mm 192 W/m2
19:01 26.9 °C 14.3 °C 1008.8 hPa Calm   3.2 km/h 46% 0.0 mm 316 W/m2
19:06 27.2 °C 14.9 °C 1008.8 hPa Calm   3.2 km/h 47% 0.0 mm 294 W/m2
19:11 27.3 °C 14.3 °C 1008.8 hPa West 3.2 km/h 6.4 km/h 45% 0.0 mm 169 W/m2
19:16 27.3 °C 14.3 °C 1008.8 hPa WNW 4.7 km/h 8 km/h 45% 0.0 mm 135 W/m2
Juneau County Weather
Compliments of Weather Underground - 2 mb